createdAt,value
2022-08-11T00:03:42.615Z,0
2022-08-11T00:13:16.796Z,0
2022-08-11T00:22:51.102Z,0
2022-08-11T00:32:27.896Z,0
2022-08-11T00:42:04.955Z,0
2022-08-11T00:51:57.610Z,0
2022-08-11T01:10:55.746Z,0
2022-08-11T01:20:46.354Z,0
2022-08-11T01:30:10.341Z,0
2022-08-11T01:39:47.411Z,0
2022-08-11T02:18:15.220Z,0
2022-08-11T02:27:51.849Z,0
2022-08-11T02:37:28.499Z,0
2022-08-11T02:47:05.702Z,0
2022-08-11T03:06:19.097Z,0
2022-08-11T03:15:55.792Z,0
2022-08-11T03:25:32.337Z,1.67
2022-08-11T03:35:09.271Z,6.67
2022-08-11T03:44:46.194Z,26.67
2022-08-11T03:54:23.105Z,72.5
2022-08-11T04:03:59.518Z,145
2022-08-11T04:13:36.539Z,238.33
2022-08-11T04:23:13.718Z,338.33
2022-08-11T04:32:51.215Z,437.5
2022-08-11T04:42:31.643Z,531.67
2022-08-11T05:01:43.614Z,685
2022-08-11T05:11:20.751Z,746.67
2022-08-11T05:20:58.763Z,800
2022-08-11T05:30:35.589Z,846.67
2022-08-11T05:40:13.194Z,890.83
2022-08-11T05:49:51.461Z,934.17
2022-08-11T05:59:28.912Z,975.83
2022-08-11T06:09:06.623Z,997.5
2022-08-11T06:18:44.329Z,1035
2022-08-11T06:28:22.356Z,593.33
2022-08-11T06:38:00.272Z,1105
2022-08-11T06:47:38.048Z,1140.83
2022-08-11T06:57:31.359Z,1179.17
2022-08-11T07:06:53.560Z,1212.5
2022-08-11T07:16:31.705Z,1246.67
2022-08-11T07:26:09.279Z,1287.5
2022-08-11T07:35:48.722Z,1330.83
2022-08-11T07:45:25.971Z,1379.17
2022-08-11T07:55:04.285Z,1393.33
2022-08-11T08:23:59.290Z,1626.67
2022-08-11T08:33:37.814Z,1705.83
2022-08-11T08:52:55.247Z,1939.17
2022-08-11T09:02:35.155Z,2079.17
2022-08-11T09:12:13.523Z,2302.5
2022-08-11T09:21:52.512Z,2485
2022-08-11T09:50:58.672Z,15316.67
2022-08-11T10:00:49.139Z,15350
2022-08-11T10:10:32.391Z,17825.83
2022-08-11T10:20:14.272Z,17242.5
2022-08-11T10:39:37.280Z,19571.67
2022-08-11T10:49:16.691Z,23742.5
2022-08-11T10:58:55.258Z,25935.83
2022-08-11T11:08:36.161Z,22126.67
2022-08-11T11:18:17.396Z,23821.67
2022-08-11T11:27:54.721Z,21115
2022-08-11T11:37:31.772Z,29010
2022-08-11T11:47:09.305Z,26300
2022-08-11T11:56:48.136Z,26986.67
2022-08-11T12:06:30.750Z,25137.5
2022-08-11T12:16:32.642Z,21866.67
2022-08-11T12:25:59.582Z,30630.83
2022-08-11T12:35:26.584Z,28300.83
2022-08-11T12:45:06.925Z,29567.5
2022-08-11T12:54:45.176Z,19544.17
2022-08-11T13:04:23.047Z,20089.17
2022-08-11T13:14:03.912Z,17751.67
2022-08-11T13:23:59.986Z,18161.67
2022-08-11T13:33:21.580Z,16305
2022-08-11T13:42:59.853Z,14330
2022-08-11T13:52:37.045Z,15318.33
2022-08-11T14:02:21.160Z,9959.17
2022-08-11T14:21:34.709Z,10820.83
2022-08-11T14:31:10.533Z,9557.5
2022-08-11T14:50:27.958Z,12054.17
2022-08-11T15:00:08.554Z,11199.17
2022-08-11T15:10:10.118Z,9581.67
2022-08-11T15:19:11.393Z,7207.5
2022-08-11T15:28:43.387Z,4585.83
2022-08-11T15:47:51.394Z,5207.5
2022-08-11T15:57:27.877Z,3906.67
2022-08-11T16:16:37.369Z,2392.5
2022-08-11T16:35:46.152Z,1627.5
2022-08-11T16:45:23.599Z,1577.5
2022-08-11T16:54:59.092Z,1384.17
2022-08-11T17:04:36.008Z,1311.67
2022-08-11T17:14:12.634Z,1019.17
2022-08-11T17:23:49.794Z,1099.17
2022-08-11T17:33:27.925Z,991.67
2022-08-11T17:43:04.075Z,959.17
2022-08-11T17:52:41.392Z,718.33
2022-08-11T18:02:18.152Z,460
2022-08-11T18:12:00.169Z,320.83
2022-08-11T18:21:31.424Z,232.5
2022-08-11T18:31:12.433Z,145
2022-08-11T18:40:44.588Z,80
2022-08-11T18:50:21.113Z,37.5
2022-08-11T18:59:57.739Z,10.83
2022-08-11T19:09:34.233Z,2.5
2022-08-11T19:19:11.105Z,0.83
2022-08-11T19:28:47.839Z,0
2022-08-11T19:38:24.435Z,0
2022-08-11T19:48:20.998Z,0
2022-08-11T19:57:40.065Z,0
2022-08-11T20:07:14.586Z,0
2022-08-11T20:16:51.374Z,0
2022-08-11T20:36:04.400Z,0
2022-08-11T21:04:55.232Z,0
2022-08-11T21:14:30.843Z,0
2022-08-11T21:24:07.599Z,0
2022-08-11T21:33:44.606Z,0
2022-08-11T21:43:21.322Z,0
2022-08-11T21:52:57.869Z,0
2022-08-11T22:12:30.430Z,0
2022-08-11T22:21:57.067Z,0
2022-08-11T22:41:01.203Z,0
2022-08-11T22:50:37.304Z,0
2022-08-11T23:00:14.258Z,0
2022-08-11T23:09:50.974Z,0
2022-08-11T23:29:05.439Z,0
2022-08-11T23:38:41.450Z,0
2022-08-11T23:48:17.973Z,0
2022-08-11T23:57:54.770Z,0
